sensor_id;sensor_type;location;lat;lon;timestamp;P1;durP1;ratioP1;P2;durP2;ratioP2
32964;SDS011;19317;48.226;11.686;2023-11-19T00:01:13;1.90;;;1.80;;
32964;SDS011;19317;48.226;11.686;2023-11-19T00:06:04;2.10;;;2.00;;
32964;SDS011;19317;48.226;11.686;2023-11-19T00:10:55;2.20;;;2.10;;
32964;SDS011;19317;48.226;11.686;2023-11-19T00:15:46;2.13;;;2.03;;
32964;SDS011;19317;48.226;11.686;2023-11-19T00:20:37;2.00;;;1.90;;
32964;SDS011;19317;48.226;11.686;2023-11-19T00:25:28;2.00;;;1.90;;
32964;SDS011;19317;48.226;11.686;2023-11-19T00:30:19;1.90;;;1.70;;
32964;SDS011;19317;48.226;11.686;2023-11-19T00:35:09;2.00;;;1.90;;
32964;SDS011;19317;48.226;11.686;2023-11-19T00:40:00;2.20;;;2.10;;
32964;SDS011;19317;48.226;11.686;2023-11-19T00:44:51;2.13;;;2.03;;
32964;SDS011;19317;48.226;11.686;2023-11-19T00:49:42;2.50;;;2.30;;
32964;SDS011;19317;48.226;11.686;2023-11-19T00:54:33;2.10;;;2.00;;
32964;SDS011;19317;48.226;11.686;2023-11-19T00:59:24;2.40;;;2.20;;
32964;SDS011;19317;48.226;11.686;2023-11-19T01:04:15;5.30;;;4.23;;
32964;SDS011;19317;48.226;11.686;2023-11-19T01:09:06;4.33;;;3.83;;
32964;SDS011;19317;48.226;11.686;2023-11-19T01:13:56;2.90;;;2.17;;
32964;SDS011;19317;48.226;11.686;2023-11-19T01:18:47;4.10;;;2.37;;
32964;SDS011;19317;48.226;11.686;2023-11-19T01:23:38;2.17;;;2.07;;
32964;SDS011;19317;48.226;11.686;2023-11-19T01:28:29;2.93;;;2.47;;
32964;SDS011;19317;48.226;11.686;2023-11-19T01:33:20;4.33;;;2.60;;
32964;SDS011;19317;48.226;11.686;2023-11-19T01:38:11;2.30;;;2.20;;
32964;SDS011;19317;48.226;11.686;2023-11-19T01:43:02;2.73;;;2.53;;
32964;SDS011;19317;48.226;11.686;2023-11-19T01:47:53;3.67;;;2.70;;
32964;SDS011;19317;48.226;11.686;2023-11-19T01:52:44;3.13;;;2.83;;
32964;SDS011;19317;48.226;11.686;2023-11-19T01:57:35;2.87;;;2.60;;
32964;SDS011;19317;48.226;11.686;2023-11-19T02:02:26;2.80;;;2.60;;
32964;SDS011;19317;48.226;11.686;2023-11-19T02:07:17;2.90;;;2.60;;
32964;SDS011;19317;48.226;11.686;2023-11-19T02:12:09;2.83;;;2.63;;
32964;SDS011;19317;48.226;11.686;2023-11-19T02:17:00;2.90;;;2.70;;
32964;SDS011;19317;48.226;11.686;2023-11-19T02:21:51;2.60;;;2.40;;
32964;SDS011;19317;48.226;11.686;2023-11-19T02:26:59;2.77;;;2.57;;
32964;SDS011;19317;48.226;11.686;2023-11-19T02:31:52;2.57;;;2.37;;
32964;SDS011;19317;48.226;11.686;2023-11-19T02:36:43;4.13;;;2.40;;
32964;SDS011;19317;48.226;11.686;2023-11-19T02:41:35;2.97;;;2.10;;
32964;SDS011;19317;48.226;11.686;2023-11-19T02:46:26;2.20;;;2.10;;
32964;SDS011;19317;48.226;11.686;2023-11-19T02:51:17;2.33;;;2.13;;
32964;SDS011;19317;48.226;11.686;2023-11-19T02:56:08;2.43;;;2.23;;
32964;SDS011;19317;48.226;11.686;2023-11-19T03:00:58;2.40;;;2.10;;
32964;SDS011;19317;48.226;11.686;2023-11-19T03:05:49;2.50;;;2.30;;
32964;SDS011;19317;48.226;11.686;2023-11-19T03:10:40;2.37;;;2.17;;
32964;SDS011;19317;48.226;11.686;2023-11-19T03:15:31;2.47;;;2.27;;
32964;SDS011;19317;48.226;11.686;2023-11-19T03:20:22;2.50;;;2.27;;
32964;SDS011;19317;48.226;11.686;2023-11-19T03:25:13;2.70;;;2.40;;
32964;SDS011;19317;48.226;11.686;2023-11-19T03:30:05;2.40;;;2.20;;
32964;SDS011;19317;48.226;11.686;2023-11-19T03:34:56;2.50;;;2.30;;
32964;SDS011;19317;48.226;11.686;2023-11-19T03:39:46;2.73;;;2.47;;
32964;SDS011;19317;48.226;11.686;2023-11-19T03:44:37;2.67;;;2.43;;
32964;SDS011;19317;48.226;11.686;2023-11-19T03:49:28;2.13;;;2.03;;
32964;SDS011;19317;48.226;11.686;2023-11-19T03:54:19;2.43;;;2.23;;
32964;SDS011;19317;48.226;11.686;2023-11-19T03:59:10;3.47;;;2.40;;
32964;SDS011;19317;48.226;11.686;2023-11-19T04:04:01;2.57;;;2.37;;
32964;SDS011;19317;48.226;11.686;2023-11-19T04:08:52;3.30;;;2.53;;
32964;SDS011;19317;48.226;11.686;2023-11-19T04:13:43;2.87;;;2.57;;
32964;SDS011;19317;48.226;11.686;2023-11-19T04:18:33;2.60;;;2.40;;
32964;SDS011;19317;48.226;11.686;2023-11-19T04:23:24;2.10;;;1.80;;
32964;SDS011;19317;48.226;11.686;2023-11-19T04:28:15;2.17;;;2.00;;
32964;SDS011;19317;48.226;11.686;2023-11-19T04:33:06;1.90;;;1.80;;
32964;SDS011;19317;48.226;11.686;2023-11-19T04:37:57;1.90;;;1.80;;
32964;SDS011;19317;48.226;11.686;2023-11-19T04:42:48;1.80;;;1.70;;
32964;SDS011;19317;48.226;11.686;2023-11-19T04:47:39;1.80;;;1.70;;
32964;SDS011;19317;48.226;11.686;2023-11-19T04:52:30;2.10;;;1.80;;
32964;SDS011;19317;48.226;11.686;2023-11-19T04:57:20;2.00;;;1.80;;
32964;SDS011;19317;48.226;11.686;2023-11-19T05:02:11;1.80;;;1.70;;
32964;SDS011;19317;48.226;11.686;2023-11-19T05:07:02;1.90;;;1.80;;
32964;SDS011;19317;48.226;11.686;2023-11-19T05:11:53;1.60;;;1.50;;
32964;SDS011;19317;48.226;11.686;2023-11-19T05:16:44;1.90;;;1.80;;
32964;SDS011;19317;48.226;11.686;2023-11-19T05:21:35;2.10;;;2.00;;
32964;SDS011;19317;48.226;11.686;2023-11-19T05:26:26;1.90;;;1.80;;
32964;SDS011;19317;48.226;11.686;2023-11-19T05:31:17;2.33;;;2.13;;
32964;SDS011;19317;48.226;11.686;2023-11-19T05:36:08;1.90;;;1.80;;
32964;SDS011;19317;48.226;11.686;2023-11-19T05:40:59;2.00;;;1.90;;
32964;SDS011;19317;48.226;11.686;2023-11-19T05:45:50;2.07;;;1.97;;
32964;SDS011;19317;48.226;11.686;2023-11-19T05:50:41;1.80;;;1.70;;
32964;SDS011;19317;48.226;11.686;2023-11-19T05:55:35;1.70;;;1.60;;
32964;SDS011;19317;48.226;11.686;2023-11-19T06:00:26;1.70;;;1.60;;
32964;SDS011;19317;48.226;11.686;2023-11-19T06:05:17;1.80;;;1.70;;
32964;SDS011;19317;48.226;11.686;2023-11-19T06:10:07;1.87;;;1.77;;
32964;SDS011;19317;48.226;11.686;2023-11-19T06:14:59;1.53;;;1.43;;
32964;SDS011;19317;48.226;11.686;2023-11-19T06:19:50;1.70;;;1.60;;
32964;SDS011;19317;48.226;11.686;2023-11-19T06:24:41;1.83;;;1.73;;
32964;SDS011;19317;48.226;11.686;2023-11-19T06:29:32;1.80;;;1.70;;
32964;SDS011;19317;48.226;11.686;2023-11-19T06:34:23;1.90;;;1.80;;
32964;SDS011;19317;48.226;11.686;2023-11-19T06:39:14;1.67;;;1.57;;
32964;SDS011;19317;48.226;11.686;2023-11-19T06:44:04;1.70;;;1.60;;
32964;SDS011;19317;48.226;11.686;2023-11-19T06:48:55;1.80;;;1.70;;
32964;SDS011;19317;48.226;11.686;2023-11-19T06:53:46;1.97;;;1.50;;
32964;SDS011;19317;48.226;11.686;2023-11-19T06:58:37;1.80;;;1.70;;
32964;SDS011;19317;48.226;11.686;2023-11-19T07:03:28;1.83;;;1.73;;
32964;SDS011;19317;48.226;11.686;2023-11-19T07:08:19;1.70;;;1.60;;
32964;SDS011;19317;48.226;11.686;2023-11-19T07:13:10;1.77;;;1.67;;
32964;SDS011;19317;48.226;11.686;2023-11-19T07:18:00;1.60;;;1.50;;
32964;SDS011;19317;48.226;11.686;2023-11-19T07:22:51;1.80;;;1.70;;
32964;SDS011;19317;48.226;11.686;2023-11-19T07:27:42;1.80;;;1.70;;
32964;SDS011;19317;48.226;11.686;2023-11-19T07:32:33;1.93;;;1.83;;
32964;SDS011;19317;48.226;11.686;2023-11-19T07:37:24;1.73;;;1.63;;
32964;SDS011;19317;48.226;11.686;2023-11-19T07:42:15;1.70;;;1.60;;
32964;SDS011;19317;48.226;11.686;2023-11-19T07:47:06;1.60;;;1.50;;
32964;SDS011;19317;48.226;11.686;2023-11-19T07:51:57;1.70;;;1.60;;
32964;SDS011;19317;48.226;11.686;2023-11-19T07:56:48;1.97;;;1.87;;
32964;SDS011;19317;48.226;11.686;2023-11-19T08:01:38;1.57;;;1.47;;
32964;SDS011;19317;48.226;11.686;2023-11-19T08:06:29;2.20;;;2.00;;
32964;SDS011;19317;48.226;11.686;2023-11-19T08:11:20;1.93;;;1.80;;
32964;SDS011;19317;48.226;11.686;2023-11-19T08:16:11;1.90;;;1.80;;
32964;SDS011;19317;48.226;11.686;2023-11-19T08:21:02;1.80;;;1.70;;
32964;SDS011;19317;48.226;11.686;2023-11-19T08:25:53;1.87;;;1.77;;
32964;SDS011;19317;48.226;11.686;2023-11-19T08:30:44;2.00;;;1.80;;
32964;SDS011;19317;48.226;11.686;2023-11-19T08:35:35;1.70;;;1.60;;
32964;SDS011;19317;48.226;11.686;2023-11-19T08:40:26;2.20;;;2.10;;
32964;SDS011;19317;48.226;11.686;2023-11-19T08:45:17;1.83;;;1.73;;
32964;SDS011;19317;48.226;11.686;2023-11-19T08:50:07;2.50;;;2.30;;
32964;SDS011;19317;48.226;11.686;2023-11-19T08:54:58;3.23;;;2.30;;
32964;SDS011;19317;48.226;11.686;2023-11-19T08:59:49;2.67;;;1.97;;
32964;SDS011;19317;48.226;11.686;2023-11-19T10:33:27;2.20;;;2.03;;
32964;SDS011;19317;48.226;11.686;2023-11-19T10:42:15;2.00;;;1.90;;
32964;SDS011;19317;48.226;11.686;2023-11-19T11:17:41;1.80;;;1.70;;
32964;SDS011;19317;48.226;11.686;2023-11-19T11:53:52;1.60;;;1.50;;
32964;SDS011;19317;48.226;11.686;2023-11-19T12:10:14;1.90;;;1.80;;
32964;SDS011;19317;48.226;11.686;2023-11-19T12:15:05;1.83;;;1.70;;
32964;SDS011;19317;48.226;11.686;2023-11-19T12:24:35;3.40;;;3.10;;
32964;SDS011;19317;48.226;11.686;2023-11-19T12:29:26;3.97;;;3.33;;
32964;SDS011;19317;48.226;11.686;2023-11-19T12:34:17;2.57;;;2.30;;
32964;SDS011;19317;48.226;11.686;2023-11-19T12:39:08;1.70;;;1.60;;
32964;SDS011;19317;48.226;11.686;2023-11-19T12:44:11;1.80;;;1.70;;
32964;SDS011;19317;48.226;11.686;2023-11-19T12:49:02;1.77;;;1.67;;
32964;SDS011;19317;48.226;11.686;2023-11-19T12:53:53;1.63;;;1.53;;
32964;SDS011;19317;48.226;11.686;2023-11-19T12:58:44;2.43;;;1.80;;
32964;SDS011;19317;48.226;11.686;2023-11-19T17:31:03;2.20;;;2.10;;
32964;SDS011;19317;48.226;11.686;2023-11-19T17:35:54;2.10;;;2.00;;
32964;SDS011;19317;48.226;11.686;2023-11-19T17:40:45;2.80;;;2.60;;
32964;SDS011;19317;48.226;11.686;2023-11-19T17:45:36;2.03;;;1.80;;
32964;SDS011;19317;48.226;11.686;2023-11-19T17:50:27;2.57;;;2.33;;
32964;SDS011;19317;48.226;11.686;2023-11-19T17:55:18;2.50;;;1.87;;
32964;SDS011;19317;48.226;11.686;2023-11-19T18:00:09;4.97;;;2.10;;
32964;SDS011;19317;48.226;11.686;2023-11-19T18:05:00;1.93;;;1.83;;
32964;SDS011;19317;48.226;11.686;2023-11-19T18:09:51;2.30;;;2.10;;
32964;SDS011;19317;48.226;11.686;2023-11-19T18:14:42;2.27;;;2.10;;
32964;SDS011;19317;48.226;11.686;2023-11-19T18:19:33;2.30;;;2.10;;
32964;SDS011;19317;48.226;11.686;2023-11-19T18:24:24;2.47;;;2.10;;
32964;SDS011;19317;48.226;11.686;2023-11-19T18:29:15;2.00;;;1.90;;
32964;SDS011;19317;48.226;11.686;2023-11-19T18:34:06;2.23;;;2.00;;
32964;SDS011;19317;48.226;11.686;2023-11-19T18:38:57;1.90;;;1.80;;
32964;SDS011;19317;48.226;11.686;2023-11-19T18:43:47;2.20;;;2.00;;
32964;SDS011;19317;48.226;11.686;2023-11-19T18:48:38;2.60;;;2.40;;
32964;SDS011;19317;48.226;11.686;2023-11-19T18:53:29;2.13;;;2.03;;
32964;SDS011;19317;48.226;11.686;2023-11-19T18:58:20;3.47;;;2.10;;
32964;SDS011;19317;48.226;11.686;2023-11-19T19:03:11;2.30;;;2.10;;
32964;SDS011;19317;48.226;11.686;2023-11-19T19:08:02;3.87;;;2.10;;
32964;SDS011;19317;48.226;11.686;2023-11-19T19:12:53;2.43;;;2.10;;
32964;SDS011;19317;48.226;11.686;2023-11-19T19:17:44;1.90;;;1.80;;
32964;SDS011;19317;48.226;11.686;2023-11-19T19:22:35;2.10;;;2.00;;
32964;SDS011;19317;48.226;11.686;2023-11-19T19:27:25;2.03;;;1.93;;
32964;SDS011;19317;48.226;11.686;2023-11-19T19:32:16;3.27;;;2.10;;
32964;SDS011;19317;48.226;11.686;2023-11-19T19:37:07;2.63;;;2.40;;
32964;SDS011;19317;48.226;11.686;2023-11-19T19:41:58;2.40;;;2.20;;
32964;SDS011;19317;48.226;11.686;2023-11-19T19:46:49;2.50;;;2.00;;
32964;SDS011;19317;48.226;11.686;2023-11-19T19:51:40;2.47;;;2.13;;
32964;SDS011;19317;48.226;11.686;2023-11-19T19:56:31;2.60;;;2.10;;
32964;SDS011;19317;48.226;11.686;2023-11-19T20:01:22;2.27;;;1.90;;
32964;SDS011;19317;48.226;11.686;2023-11-19T20:06:13;2.50;;;2.10;;
32964;SDS011;19317;48.226;11.686;2023-11-19T20:11:03;2.20;;;2.00;;
32964;SDS011;19317;48.226;11.686;2023-11-19T20:15:54;2.37;;;2.10;;
32964;SDS011;19317;48.226;11.686;2023-11-19T20:20:45;1.90;;;1.80;;
32964;SDS011;19317;48.226;11.686;2023-11-19T20:25:36;2.20;;;2.10;;
32964;SDS011;19317;48.226;11.686;2023-11-19T20:30:27;2.30;;;2.10;;
32964;SDS011;19317;48.226;11.686;2023-11-19T20:35:18;2.37;;;1.80;;
32964;SDS011;19317;48.226;11.686;2023-11-19T20:40:09;2.53;;;2.00;;
32964;SDS011;19317;48.226;11.686;2023-11-19T20:45:06;3.07;;;2.10;;
32964;SDS011;19317;48.226;11.686;2023-11-19T20:49:57;3.83;;;2.50;;
32964;SDS011;19317;48.226;11.686;2023-11-19T20:54:48;3.77;;;2.77;;
32964;SDS011;19317;48.226;11.686;2023-11-19T20:59:39;2.93;;;2.70;;
32964;SDS011;19317;48.226;11.686;2023-11-19T21:04:30;3.17;;;2.80;;
32964;SDS011;19317;48.226;11.686;2023-11-19T21:09:21;2.13;;;2.03;;
32964;SDS011;19317;48.226;11.686;2023-11-19T21:14:12;1.93;;;1.83;;
32964;SDS011;19317;48.226;11.686;2023-11-19T21:19:02;2.50;;;2.30;;
32964;SDS011;19317;48.226;11.686;2023-11-19T21:23:53;2.20;;;2.10;;
32964;SDS011;19317;48.226;11.686;2023-11-19T21:28:44;3.43;;;2.50;;
32964;SDS011;19317;48.226;11.686;2023-11-19T21:33:35;2.30;;;2.07;;
32964;SDS011;19317;48.226;11.686;2023-11-19T21:38:26;2.20;;;2.00;;
32964;SDS011;19317;48.226;11.686;2023-11-19T21:43:17;2.30;;;2.10;;
32964;SDS011;19317;48.226;11.686;2023-11-19T21:48:08;2.63;;;2.20;;
32964;SDS011;19317;48.226;11.686;2023-11-19T21:52:59;2.83;;;2.00;;
32964;SDS011;19317;48.226;11.686;2023-11-19T21:57:50;3.30;;;2.20;;
32964;SDS011;19317;48.226;11.686;2023-11-19T22:02:41;2.60;;;2.20;;
32964;SDS011;19317;48.226;11.686;2023-11-19T22:07:32;2.30;;;2.10;;
32964;SDS011;19317;48.226;11.686;2023-11-19T22:12:23;1.80;;;1.70;;
32964;SDS011;19317;48.226;11.686;2023-11-19T22:17:13;2.10;;;1.90;;
32964;SDS011;19317;48.226;11.686;2023-11-19T22:22:04;1.90;;;1.80;;
32964;SDS011;19317;48.226;11.686;2023-11-19T22:26:55;1.90;;;1.80;;
32964;SDS011;19317;48.226;11.686;2023-11-19T22:31:46;2.03;;;1.80;;
32964;SDS011;19317;48.226;11.686;2023-11-19T22:36:37;2.00;;;1.90;;
32964;SDS011;19317;48.226;11.686;2023-11-19T22:41:28;1.83;;;1.73;;
32964;SDS011;19317;48.226;11.686;2023-11-19T22:46:19;2.23;;;2.00;;
32964;SDS011;19317;48.226;11.686;2023-11-19T22:51:10;1.93;;;1.73;;
32964;SDS011;19317;48.226;11.686;2023-11-19T22:56:01;2.07;;;1.90;;
32964;SDS011;19317;48.226;11.686;2023-11-19T23:00:52;1.83;;;1.73;;
32964;SDS011;19317;48.226;11.686;2023-11-19T23:05:42;2.10;;;1.90;;
32964;SDS011;19317;48.226;11.686;2023-11-19T23:10:33;2.30;;;1.93;;
32964;SDS011;19317;48.226;11.686;2023-11-19T23:15:24;2.10;;;1.90;;
32964;SDS011;19317;48.226;11.686;2023-11-19T23:20:15;2.13;;;2.00;;
32964;SDS011;19317;48.226;11.686;2023-11-19T23:25:07;2.10;;;2.00;;
32964;SDS011;19317;48.226;11.686;2023-11-19T23:29:58;1.83;;;1.73;;
32964;SDS011;19317;48.226;11.686;2023-11-19T23:34:49;1.90;;;1.80;;
32964;SDS011;19317;48.226;11.686;2023-11-19T23:39:40;3.57;;;2.10;;
32964;SDS011;19317;48.226;11.686;2023-11-19T23:44:30;2.97;;;1.90;;
32964;SDS011;19317;48.226;11.686;2023-11-19T23:49:21;3.57;;;2.10;;
32964;SDS011;19317;48.226;11.686;2023-11-19T23:54:12;2.10;;;1.90;;
32964;SDS011;19317;48.226;11.686;2023-11-19T23:59:03;2.57;;;1.80;;
